createdAt,value
2023-04-30T00:02:27.885Z,99.90
2023-04-30T00:04:56.137Z,99.90
2023-04-30T00:07:24.445Z,99.90
2023-04-30T00:09:53.101Z,99.90
2023-04-30T00:12:22.000Z,99.90
2023-04-30T00:14:51.947Z,99.90
2023-04-30T00:17:20.197Z,99.90
2023-04-30T00:19:48.443Z,99.90
2023-04-30T00:22:16.710Z,99.90
2023-04-30T00:24:45.184Z,99.90
2023-04-30T00:27:13.429Z,99.90
2023-04-30T00:29:42.269Z,99.90
2023-04-30T00:32:11.957Z,99.90
2023-04-30T00:34:40.348Z,99.90
2023-04-30T00:37:08.583Z,99.90
2023-04-30T00:39:36.799Z,99.90
2023-04-30T00:42:05.200Z,99.90
2023-04-30T00:44:33.418Z,99.90
2023-04-30T00:47:01.682Z,99.90
2023-04-30T00:49:31.345Z,99.90
2023-04-30T00:51:59.665Z,99.90
2023-04-30T00:54:27.971Z,99.90
2023-04-30T00:56:56.349Z,99.90
2023-04-30T00:59:25.555Z,99.90
2023-04-30T01:01:54.882Z,99.90
2023-04-30T01:04:23.241Z,99.90
2023-04-30T01:06:53.125Z,99.90
2023-04-30T01:09:21.613Z,99.90
2023-04-30T01:12:01.793Z,99.90
2023-04-30T01:14:39.256Z,99.90
2023-04-30T01:17:14.328Z,99.90
2023-04-30T01:19:45.304Z,99.90
2023-04-30T01:22:37.323Z,99.90
2023-04-30T01:25:24.511Z,99.90
2023-04-30T01:28:06.717Z,99.90
2023-04-30T01:30:36.478Z,99.90
2023-04-30T01:33:05.368Z,99.90
2023-04-30T01:35:59.980Z,99.90
2023-04-30T01:38:47.985Z,99.90
2023-04-30T01:41:29.518Z,99.90
2023-04-30T01:44:25.857Z,99.90
2023-04-30T01:47:08.802Z,99.90
2023-04-30T01:49:58.064Z,99.90
2023-04-30T01:52:33.368Z,99.90
2023-04-30T01:55:10.766Z,99.90
2023-04-30T01:57:41.430Z,99.90
2023-04-30T02:00:12.797Z,99.90
2023-04-30T02:02:41.143Z,99.90
2023-04-30T02:05:10.202Z,99.90
2023-04-30T02:07:42.613Z,99.90
2023-04-30T02:10:12.950Z,99.90
2023-04-30T02:12:42.131Z,99.90
2023-04-30T02:15:12.844Z,99.90
2023-04-30T02:17:41.181Z,99.90
2023-04-30T02:20:10.630Z,99.90
2023-04-30T02:22:39.258Z,99.90
2023-04-30T02:25:08.388Z,99.90
2023-04-30T02:27:36.635Z,99.90
2023-04-30T02:30:06.291Z,99.90
2023-04-30T02:32:36.302Z,99.90
2023-04-30T02:35:04.952Z,99.90
2023-04-30T02:37:33.219Z,99.90
2023-04-30T02:40:01.470Z,99.90
2023-04-30T02:42:29.732Z,99.90
2023-04-30T02:44:57.952Z,99.90
2023-04-30T02:47:26.218Z,99.90
2023-04-30T02:49:56.023Z,99.90
2023-04-30T02:52:24.570Z,99.90
2023-04-30T02:54:52.811Z,99.90
2023-04-30T02:57:21.033Z,99.90
2023-04-30T02:59:49.438Z,99.90
2023-04-30T03:02:21.493Z,99.90
2023-04-30T03:04:50.204Z,99.90
2023-04-30T03:07:19.939Z,99.90
2023-04-30T03:09:48.254Z,99.90
2023-04-30T03:12:16.625Z,99.90
2023-04-30T03:14:44.878Z,99.90
2023-04-30T03:17:13.131Z,99.90
2023-04-30T03:19:41.372Z,99.90
2023-04-30T03:22:09.613Z,99.90
2023-04-30T03:24:39.258Z,99.90
2023-04-30T03:27:07.469Z,99.90
2023-04-30T03:29:35.847Z,99.90
2023-04-30T03:32:04.249Z,99.90
2023-04-30T03:34:32.676Z,99.90
2023-04-30T03:37:01.852Z,99.90
2023-04-30T03:39:30.098Z,99.90
2023-04-30T03:41:59.669Z,99.90
2023-04-30T03:44:27.903Z,99.90
2023-04-30T03:46:56.142Z,99.90
2023-04-30T03:49:24.418Z,99.90
2023-04-30T03:51:52.630Z,99.90
2023-04-30T03:54:21.337Z,99.90
2023-04-30T03:56:49.592Z,99.90
2023-04-30T03:59:19.624Z,99.90
2023-04-30T04:01:47.851Z,99.90
2023-04-30T04:04:16.221Z,99.90
2023-04-30T04:06:44.655Z,99.90
2023-04-30T04:09:13.326Z,99.90
2023-04-30T04:11:41.524Z,99.90
2023-04-30T04:14:09.848Z,99.90
2023-04-30T04:16:39.522Z,99.90
2023-04-30T04:19:07.783Z,99.90
2023-04-30T04:21:36.038Z,99.90
2023-04-30T04:24:08.562Z,99.90
2023-04-30T04:26:37.344Z,99.90
2023-04-30T04:29:05.766Z,99.90
2023-04-30T04:31:34.111Z,99.90
2023-04-30T04:34:06.216Z,99.90
2023-04-30T04:36:34.520Z,99.90
2023-04-30T04:39:03.194Z,99.90
2023-04-30T04:41:32.701Z,99.90
2023-04-30T04:44:01.824Z,99.90
2023-04-30T04:56:27.350Z,99.90
2023-04-30T04:58:55.659Z,99.90
2023-04-30T05:01:23.897Z,99.90
2023-04-30T05:03:53.764Z,99.90
2023-04-30T05:06:22.162Z,99.90
2023-04-30T05:08:51.787Z,99.90
2023-04-30T05:11:20.008Z,99.90
2023-04-30T05:13:48.251Z,99.90
2023-04-30T05:16:16.778Z,99.90
2023-04-30T05:18:45.089Z,99.90
2023-04-30T05:21:13.337Z,99.90
2023-04-30T05:23:41.581Z,99.90
2023-04-30T05:26:11.206Z,99.90
2023-04-30T05:28:39.401Z,99.90
2023-04-30T05:31:07.754Z,99.90
2023-04-30T05:33:37.160Z,99.90
2023-04-30T05:36:06.250Z,99.90
2023-04-30T05:38:34.444Z,99.90
2023-04-30T05:41:02.690Z,99.90
2023-04-30T05:43:32.530Z,99.90
2023-04-30T05:46:00.848Z,99.90
2023-04-30T05:48:29.081Z,99.90
2023-04-30T05:50:57.357Z,99.90
2023-04-30T05:53:25.603Z,99.90
2023-04-30T05:55:53.872Z,99.90
2023-04-30T05:58:22.084Z,99.90
2023-04-30T06:00:53.057Z,99.90
2023-04-30T06:03:21.531Z,99.90
2023-04-30T06:05:49.892Z,99.90
2023-04-30T06:08:18.154Z,99.90
2023-04-30T06:10:46.601Z,99.90
2023-04-30T06:13:15.447Z,99.90
2023-04-30T06:15:43.763Z,99.90
2023-04-30T06:18:14.380Z,99.90
2023-04-30T06:20:42.697Z,99.90
2023-04-30T06:23:10.946Z,99.90
2023-04-30T06:25:39.374Z,99.90
2023-04-30T06:28:09.316Z,99.90
2023-04-30T06:30:38.376Z,99.90
2023-04-30T06:33:06.689Z,99.90
2023-04-30T06:35:36.586Z,99.90
2023-04-30T06:38:05.137Z,99.90
2023-04-30T06:40:33.436Z,99.90
2023-04-30T08:17:38.106Z,99.90
2023-04-30T08:20:08.444Z,99.90
2023-04-30T08:22:36.702Z,99.90
2023-04-30T08:25:05.345Z,99.90
2023-04-30T08:27:33.850Z,99.90
2023-04-30T08:30:02.066Z,99.90
2023-04-30T08:32:30.754Z,99.90
2023-04-30T08:35:00.411Z,99.90
2023-04-30T08:37:28.687Z,99.90
2023-04-30T08:39:57.158Z,99.90
2023-04-30T08:42:36.400Z,99.90
2023-04-30T08:45:05.693Z,99.90
2023-04-30T08:47:34.334Z,99.90
2023-04-30T08:50:04.240Z,99.90
2023-04-30T08:52:35.665Z,99.90
2023-04-30T08:55:08.059Z,98.40
2023-04-30T08:57:37.727Z,99.90
2023-04-30T09:00:08.387Z,99.90
2023-04-30T09:02:40.692Z,99.90
2023-04-30T09:05:13.518Z,99.90
2023-04-30T09:07:52.005Z,99.90
2023-04-30T09:10:33.546Z,99.90
2023-04-30T09:13:02.626Z,99.90
2023-04-30T09:15:32.174Z,99.90
2023-04-30T09:18:12.482Z,99.90
2023-04-30T09:20:57.440Z,99.90
2023-04-30T09:23:26.233Z,99.90
2023-04-30T09:25:54.722Z,99.90
2023-04-30T09:28:25.599Z,99.90
2023-04-30T09:30:54.789Z,99.90
2023-04-30T09:33:23.087Z,99.90
2023-04-30T09:35:52.794Z,99.90
2023-04-30T09:38:28.903Z,99.90
2023-04-30T09:41:00.775Z,99.90
2023-04-30T09:43:29.685Z,99.90
2023-04-30T09:46:00.723Z,99.90
2023-04-30T09:48:29.578Z,99.90
2023-04-30T09:50:59.541Z,99.90
2023-04-30T09:53:29.251Z,99.90
2023-04-30T09:56:03.957Z,99.90
2023-04-30T09:58:37.451Z,99.90
2023-04-30T10:01:08.019Z,99.90
2023-04-30T10:03:37.619Z,99.90
2023-04-30T10:06:08.986Z,99.90
2023-04-30T10:08:43.204Z,99.90
2023-04-30T10:11:17.327Z,99.90
2023-04-30T10:13:53.873Z,99.90
2023-04-30T10:16:35.578Z,99.90
2023-04-30T10:19:10.934Z,99.90
2023-04-30T10:21:43.499Z,99.90
2023-04-30T10:24:14.575Z,99.90
2023-04-30T10:26:44.588Z,99.90
2023-04-30T10:29:15.035Z,99.90
2023-04-30T10:31:47.850Z,98.90
2023-04-30T10:34:27.111Z,99.90
2023-04-30T10:37:01.622Z,99.90
2023-04-30T10:39:30.551Z,99.90
2023-04-30T10:42:06.286Z,99.90
2023-04-30T10:44:38.486Z,99.90
2023-04-30T10:47:08.588Z,99.90
2023-04-30T10:49:37.062Z,99.90
2023-04-30T10:52:07.272Z,99.90
2023-04-30T10:54:39.242Z,99.90
2023-04-30T10:57:17.650Z,99.90
2023-04-30T10:59:54.292Z,99.90
2023-04-30T11:02:22.965Z,99.90
2023-04-30T11:05:15.180Z,99.90
2023-04-30T11:07:52.908Z,95.40
2023-04-30T11:10:24.840Z,99.20
2023-04-30T11:12:54.689Z,99.90
2023-04-30T11:15:27.182Z,99.90
2023-04-30T11:17:59.571Z,97.80
2023-04-30T11:20:29.071Z,99.90
2023-04-30T11:23:13.174Z,99.90
2023-04-30T11:25:45.665Z,99.90
2023-04-30T11:28:17.782Z,99.90
2023-04-30T11:30:54.348Z,99.90
2023-04-30T11:33:27.246Z,99.90
2023-04-30T11:35:56.396Z,99.90
2023-04-30T11:38:29.465Z,99.50
2023-04-30T11:40:59.046Z,99.90
2023-04-30T11:43:29.186Z,91.80
2023-04-30T11:46:07.207Z,97.10
2023-04-30T11:48:37.518Z,96.20
2023-04-30T11:51:16.524Z,99.20
2023-04-30T11:53:47.733Z,99.90
2023-04-30T11:56:18.985Z,99.90
2023-04-30T11:58:49.009Z,97.20
2023-04-30T12:01:17.911Z,99.90
2023-04-30T12:03:48.542Z,99.90
2023-04-30T12:06:24.816Z,99.90
2023-04-30T12:08:56.026Z,99.90
2023-04-30T12:11:25.974Z,99.90
2023-04-30T12:14:03.466Z,99.90
2023-04-30T12:16:44.361Z,99.90
2023-04-30T12:19:13.029Z,99.90
2023-04-30T12:21:44.680Z,99.90
2023-04-30T12:24:15.061Z,99.90
2023-04-30T12:26:43.720Z,94.80
2023-04-30T12:29:15.842Z,99.90
2023-04-30T12:31:45.481Z,99.90
2023-04-30T12:34:16.082Z,99.90
2023-04-30T12:36:44.490Z,96.10
2023-04-30T12:39:16.772Z,99.90
2023-04-30T12:41:47.182Z,95.40
2023-04-30T12:44:19.990Z,93.10
2023-04-30T12:46:49.250Z,95.10
2023-04-30T12:49:28.287Z,99.90
2023-04-30T12:52:07.446Z,92.50
2023-04-30T12:54:38.662Z,93.70
2023-04-30T12:57:09.075Z,98.10
2023-04-30T12:59:40.509Z,99.90
2023-04-30T13:02:13.876Z,94.80
2023-04-30T13:04:43.642Z,95.60
2023-04-30T13:07:12.578Z,94.20
2023-04-30T13:09:42.197Z,98.30
2023-04-30T13:12:10.525Z,99.90
2023-04-30T13:14:38.841Z,93.20
2023-04-30T13:17:10.052Z,99.90
2023-04-30T13:19:38.341Z,95.20
2023-04-30T13:22:06.599Z,94.70
2023-04-30T13:24:34.883Z,99.90
2023-04-30T13:27:05.107Z,91.70
2023-04-30T13:29:33.421Z,94.70
2023-04-30T13:32:01.716Z,92.70
2023-04-30T13:34:29.966Z,92.70
2023-04-30T13:36:58.219Z,88.20
2023-04-30T13:39:26.639Z,97.40
2023-04-30T13:41:54.910Z,99.90
2023-04-30T13:44:24.634Z,99.90
2023-04-30T13:46:52.900Z,87.00
2023-04-30T13:49:21.220Z,99.90
2023-04-30T13:51:49.868Z,97.60
2023-04-30T13:54:18.133Z,92.10
2023-04-30T13:56:46.463Z,91.70
2023-04-30T13:59:14.806Z,99.90
2023-04-30T14:01:44.465Z,99.90
2023-04-30T14:04:14.227Z,90.10
2023-04-30T14:06:43.329Z,89.00
2023-04-30T14:09:11.842Z,90.20
2023-04-30T14:11:40.117Z,93.90
2023-04-30T14:14:09.850Z,91.20
2023-04-30T14:16:38.522Z,97.90
2023-04-30T14:19:08.176Z,99.90
2023-04-30T14:21:36.471Z,96.60
2023-04-30T14:24:05.014Z,98.30
2023-04-30T14:26:33.434Z,92.20
2023-04-30T14:29:01.699Z,99.90
2023-04-30T14:31:30.173Z,88.90
2023-04-30T14:33:58.536Z,97.00
2023-04-30T14:36:29.055Z,92.50
2023-04-30T14:38:57.422Z,99.90
2023-04-30T14:41:25.818Z,88.60
2023-04-30T14:43:54.217Z,91.10
2023-04-30T14:46:22.707Z,93.50
2023-04-30T14:48:50.986Z,99.90
2023-04-30T14:51:19.226Z,93.20
2023-04-30T14:53:48.938Z,92.10
2023-04-30T14:56:17.306Z,96.20
2023-04-30T14:58:45.545Z,99.90
2023-04-30T15:01:13.852Z,99.90
2023-04-30T15:03:42.494Z,91.30
2023-04-30T15:06:11.262Z,94.90
2023-04-30T15:08:40.728Z,94.40
2023-04-30T15:11:10.884Z,90.90
2023-04-30T15:13:39.136Z,94.00
2023-04-30T15:16:08.355Z,99.90
2023-04-30T15:18:37.290Z,95.40
2023-04-30T15:21:06.130Z,86.40
2023-04-30T15:23:34.386Z,99.90
2023-04-30T15:26:03.796Z,99.90
2023-04-30T15:28:34.095Z,96.50
2023-04-30T15:31:03.150Z,99.90
2023-04-30T15:33:31.814Z,97.60
2023-04-30T15:36:00.477Z,99.90
2023-04-30T15:38:29.259Z,95.80
2023-04-30T15:40:57.558Z,92.50
2023-04-30T15:43:25.785Z,99.90
2023-04-30T15:45:55.428Z,99.90
2023-04-30T15:48:23.710Z,99.90
2023-04-30T15:50:52.041Z,99.90
2023-04-30T15:53:20.290Z,99.90
2023-04-30T15:55:50.725Z,95.30
2023-04-30T15:58:18.962Z,92.30
2023-04-30T16:00:47.258Z,99.90
2023-04-30T16:03:16.980Z,99.90
2023-04-30T16:05:45.362Z,99.90
2023-04-30T16:08:13.826Z,99.90
2023-04-30T16:10:42.205Z,99.90
2023-04-30T16:13:10.474Z,97.20
2023-04-30T16:15:38.797Z,99.40
2023-04-30T16:18:07.828Z,96.90
2023-04-30T16:20:38.394Z,95.50
2023-04-30T16:23:06.966Z,99.90
2023-04-30T16:25:35.263Z,99.90
2023-04-30T16:28:03.490Z,99.90
2023-04-30T16:30:31.830Z,94.50
2023-04-30T16:33:00.237Z,97.80
2023-04-30T16:35:28.623Z,90.80
2023-04-30T16:37:58.245Z,88.40
2023-04-30T16:40:26.722Z,91.10
2023-04-30T16:42:55.652Z,91.10
2023-04-30T16:45:24.170Z,91.60
2023-04-30T16:47:52.535Z,92.90
2023-04-30T16:50:20.862Z,91.00
2023-04-30T16:52:49.117Z,90.90
2023-04-30T16:55:18.856Z,91.80
2023-04-30T16:57:47.172Z,89.60
2023-04-30T17:00:16.809Z,88.50
2023-04-30T17:02:48.922Z,90.00
2023-04-30T17:05:17.486Z,90.50
2023-04-30T17:07:45.804Z,91.20
2023-04-30T17:10:15.069Z,92.10
2023-04-30T17:12:45.389Z,93.10
2023-04-30T17:15:13.744Z,92.90
2023-04-30T17:17:42.263Z,92.00
2023-04-30T17:20:12.247Z,93.30
2023-04-30T17:22:40.522Z,93.50
2023-04-30T17:25:09.981Z,93.10
2023-04-30T17:27:38.646Z,92.80
2023-04-30T17:30:10.063Z,91.90
2023-04-30T17:32:39.119Z,97.10
2023-04-30T17:35:08.336Z,91.80
2023-04-30T17:37:36.987Z,98.90
2023-04-30T17:40:06.502Z,99.50
2023-04-30T17:42:35.166Z,99.90
2023-04-30T17:45:03.538Z,99.90
2023-04-30T17:47:33.282Z,99.90
2023-04-30T17:50:04.622Z,99.90
2023-04-30T17:52:35.590Z,99.90
2023-04-30T17:55:03.924Z,97.30
2023-04-30T17:57:32.224Z,99.90
2023-04-30T18:00:00.551Z,99.90
2023-04-30T18:02:28.991Z,99.30
2023-04-30T18:04:58.642Z,99.90
2023-04-30T18:07:26.913Z,99.70
2023-04-30T18:09:55.335Z,97.50
2023-04-30T18:12:23.792Z,96.70
2023-04-30T18:14:52.133Z,99.90
2023-04-30T18:17:20.428Z,99.90
2023-04-30T18:19:49.805Z,99.90
2023-04-30T18:22:19.954Z,99.90
2023-04-30T18:24:48.242Z,99.90
2023-04-30T18:27:16.516Z,99.70
2023-04-30T18:29:45.234Z,99.90
2023-04-30T18:32:13.751Z,99.90
2023-04-30T18:34:42.367Z,97.00
2023-04-30T18:37:10.891Z,99.90
2023-04-30T18:39:40.723Z,99.90
2023-04-30T18:42:09.473Z,99.90
2023-04-30T18:44:37.962Z,99.90
2023-04-30T18:47:06.934Z,99.90
2023-04-30T18:49:35.190Z,99.70
2023-04-30T18:52:03.536Z,99.90
2023-04-30T18:54:31.899Z,99.90
2023-04-30T18:57:01.506Z,99.90
2023-04-30T18:59:29.800Z,99.90
2023-04-30T19:01:58.103Z,99.90
2023-04-30T19:04:26.449Z,99.90
2023-04-30T19:06:55.744Z,99.90
2023-04-30T19:09:24.534Z,99.90
2023-04-30T19:11:53.279Z,99.90
2023-04-30T19:14:23.685Z,99.90
2023-04-30T19:16:52.554Z,99.90
2023-04-30T19:19:22.227Z,99.90
2023-04-30T19:21:51.648Z,99.90
2023-04-30T19:24:21.288Z,99.90
2023-04-30T19:26:50.996Z,99.90
2023-04-30T19:29:19.704Z,99.90
2023-04-30T19:31:49.857Z,99.90
2023-04-30T19:34:18.651Z,99.90
2023-04-30T19:36:47.634Z,99.90
2023-04-30T19:39:16.630Z,99.90
2023-04-30T19:41:45.297Z,99.90
2023-04-30T19:44:14.490Z,99.90
2023-04-30T19:46:44.381Z,99.90
2023-04-30T19:49:17.114Z,99.90
2023-04-30T19:51:45.866Z,99.90
2023-04-30T19:54:15.455Z,99.90
2023-04-30T19:56:44.404Z,99.90
2023-04-30T19:59:14.456Z,99.90
2023-04-30T20:01:43.245Z,99.90
2023-04-30T20:04:13.448Z,99.90
2023-04-30T20:06:42.081Z,99.90
2023-04-30T20:09:13.871Z,99.90
2023-04-30T20:11:42.457Z,99.90
2023-04-30T20:14:11.369Z,99.90
2023-04-30T20:16:40.352Z,99.90
2023-04-30T20:19:09.839Z,99.90
2023-04-30T20:21:40.021Z,99.90
2023-04-30T20:24:09.571Z,99.90
2023-04-30T20:26:38.504Z,99.90
2023-04-30T20:29:07.150Z,99.90
2023-04-30T20:31:37.170Z,99.90
2023-04-30T20:34:05.703Z,99.90
2023-04-30T20:36:34.693Z,99.90
2023-04-30T20:39:09.439Z,99.90
2023-04-30T20:41:38.135Z,99.90
2023-04-30T20:44:07.023Z,99.90
2023-04-30T20:46:38.818Z,99.90
2023-04-30T20:49:07.316Z,99.90
2023-04-30T20:51:36.916Z,99.90
2023-04-30T20:54:08.761Z,99.90
2023-04-30T20:56:37.411Z,99.90
2023-04-30T20:59:06.061Z,99.90
2023-04-30T21:01:34.813Z,99.90
2023-04-30T21:04:05.032Z,99.90
2023-04-30T21:06:34.113Z,99.90
2023-04-30T21:09:03.331Z,99.90
2023-04-30T21:11:33.920Z,99.90
2023-04-30T21:14:02.700Z,99.90
2023-04-30T21:16:32.814Z,99.90
2023-04-30T21:19:01.924Z,99.90
2023-04-30T21:21:31.199Z,99.90
2023-04-30T21:24:02.657Z,99.90
2023-04-30T21:26:32.690Z,99.90
2023-04-30T21:29:02.657Z,99.90
2023-04-30T21:31:31.904Z,99.90
2023-04-30T21:34:00.706Z,99.90
2023-04-30T21:36:30.185Z,99.90
2023-04-30T21:38:59.566Z,99.90
2023-04-30T21:41:28.886Z,99.90
2023-04-30T21:43:58.751Z,99.90
2023-04-30T21:46:27.545Z,99.90
2023-04-30T21:48:56.695Z,99.90
2023-04-30T21:51:27.090Z,99.90
2023-04-30T21:53:55.697Z,99.90
2023-04-30T21:56:26.493Z,99.90
2023-04-30T21:58:55.353Z,99.90
2023-04-30T22:01:28.033Z,99.90
2023-04-30T22:03:56.932Z,99.90
2023-04-30T22:06:25.633Z,99.90
2023-04-30T22:08:54.169Z,99.90
2023-04-30T22:11:22.896Z,99.90
2023-04-30T22:13:51.284Z,99.90
2023-04-30T22:16:20.263Z,99.90
2023-04-30T22:18:50.499Z,99.90
2023-04-30T22:21:19.514Z,99.90
2023-04-30T22:23:49.034Z,99.90
2023-04-30T22:26:17.550Z,99.90
2023-04-30T22:28:45.942Z,99.90
2023-04-30T22:31:14.489Z,99.90
2023-04-30T22:33:43.024Z,99.90
2023-04-30T22:36:13.017Z,99.90
2023-04-30T22:38:42.103Z,99.90
2023-04-30T22:41:11.026Z,99.90
2023-04-30T22:43:39.856Z,99.90
2023-04-30T22:46:08.753Z,99.90
2023-04-30T22:48:40.471Z,99.90
2023-04-30T22:51:09.633Z,99.90
2023-04-30T22:53:39.757Z,99.90
2023-04-30T22:56:09.024Z,99.90
2023-04-30T22:58:37.486Z,99.90
2023-04-30T23:01:06.336Z,99.90
2023-04-30T23:03:35.652Z,99.90
2023-04-30T23:06:04.679Z,99.90
2023-04-30T23:08:33.585Z,99.90
2023-04-30T23:11:05.534Z,99.90
2023-04-30T23:13:34.558Z,99.90
2023-04-30T23:16:05.637Z,99.90
2023-04-30T23:18:34.354Z,99.90
2023-04-30T23:21:06.010Z,99.90
2023-04-30T23:23:35.101Z,99.90
2023-04-30T23:26:06.528Z,99.90
2023-04-30T23:28:37.292Z,99.90
2023-04-30T23:31:06.165Z,99.90
2023-04-30T23:33:34.562Z,99.90
2023-04-30T23:36:03.275Z,99.90
2023-04-30T23:38:31.932Z,99.90
2023-04-30T23:41:03.453Z,99.90
2023-04-30T23:43:34.848Z,99.90
2023-04-30T23:46:04.169Z,99.90
2023-04-30T23:48:32.998Z,99.90
2023-04-30T23:51:02.470Z,99.90
2023-04-30T23:53:31.796Z,99.90
2023-04-30T23:56:00.888Z,99.90
2023-04-30T23:58:31.029Z,99.90
